Time;durP1;ratioP1;P1;durP2;ratioP2;P2;SDS_P1;SDS_P2;PMS_P1;PMS_P2;Temp;Humidity;BMP_temperature;BMP_pressure;BME280_temperature;BME280_humidity;BME280_pressure;Samples;Min_cycle;Max_cycle;Signal;HPM_P1;HPM_P2
2022/02/26 00:00:44;;;;;;;4.75;0.63;;;;;;;7.66;74.09;101866.38;4983275;28;20409;-93
2022/02/26 00:03:14;;;;;;;1.27;0.80;;;;;;;7.65;73.91;101856.47;5000594;28;20061;-82
2022/02/26 00:05:43;;;;;;;5.65;0.73;;;;;;;7.62;74.07;101859.03;5016664;28;20417;-82
2022/02/26 00:08:10;;;;;;;2.60;0.50;;;;;;;7.61;74.02;101858.19;5019066;28;20055;-81
2022/02/26 00:10:40;;;;;;;4.93;0.60;;;;;;;7.60;73.98;101853.78;5032533;28;20052;-82
2022/02/26 00:13:07;;;;;;;4.78;0.95;;;;;;;7.61;73.78;101858.19;5018413;28;20068;-82
2022/02/26 00:15:34;;;;;;;3.92;0.90;;;;;;;7.59;73.61;101843.06;5018663;28;20501;-83
2022/02/26 00:18:01;;;;;;;3.78;1.23;;;;;;;7.62;73.48;101839.72;5020371;28;20046;-83
2022/02/26 00:20:29;;;;;;;3.10;0.60;;;;;;;7.63;73.48;101841.34;5019758;28;20034;-83
2022/02/26 00:22:56;;;;;;;3.88;0.88;;;;;;;7.63;73.28;101833.09;4985945;28;20133;-82
2022/02/26 00:25:24;;;;;;;4.97;1.45;;;;;;;7.64;73.19;101832.78;5000038;28;20646;-82
2022/02/26 00:27:51;;;;;;;1.48;0.30;;;;;;;7.64;72.82;101826.47;5017344;28;20064;-81
2022/02/26 00:30:19;;;;;;;3.42;0.73;;;;;;;7.66;72.67;101826.97;5021577;28;20049;-82
2022/02/26 00:32:46;;;;;;;4.85;0.75;;;;;;;7.65;72.70;101817.88;5019000;28;20049;-80
2022/02/26 00:35:14;;;;;;;2.95;1.23;;;;;;;7.62;72.77;101807.47;4989847;28;20083;-82
2022/02/26 00:37:41;;;;;;;1.75;0.40;;;;;;;7.61;72.74;101811.34;5024681;28;20049;-81
2022/02/26 00:40:09;;;;;;;4.03;0.63;;;;;;;7.59;72.34;101808.06;5026240;28;20044;-81
2022/02/26 00:42:37;;;;;;;1.20;0.63;;;;;;;7.61;72.27;101810.53;5025634;28;20386;-82
2022/02/26 00:45:06;;;;;;;3.85;0.45;;;;;;;7.59;72.30;101808.06;5009367;28;20067;-81
2022/02/26 00:47:34;;;;;;;4.03;1.02;;;;;;;7.55;72.23;101801.50;5024456;28;20753;-82
2022/02/26 00:50:03;;;;;;;2.47;0.65;;;;;;;7.56;71.86;101797.66;5025223;28;20049;-82
2022/02/26 00:52:34;;;;;;;1.83;0.55;;;;;;;7.59;71.99;101804.50;5024577;28;20044;-82
2022/02/26 00:55:05;;;;;;;5.25;0.40;;;;;;;7.60;71.61;101800.63;5025264;28;20037;-81
2022/02/26 00:57:32;;;;;;;1.15;0.43;;;;;;;7.59;71.58;101794.28;5026370;28;20060;-81
2022/02/26 00:59:59;;;;;;;2.30;0.47;;;;;;;7.60;71.38;101800.63;5025431;28;20052;-81
2022/02/26 01:02:26;;;;;;;6.00;0.63;;;;;;;7.62;71.54;101795.63;5008334;28;20136;-81
2022/02/26 01:04:54;;;;;;;3.25;0.60;;;;;;;7.64;71.69;101799.72;4993096;28;20042;-82
2022/02/26 01:07:22;;;;;;;3.92;0.70;;;;;;;7.66;71.38;101802.16;5002989;28;20046;-82
2022/02/26 01:09:49;;;;;;;3.33;0.50;;;;;;;7.69;71.52;101805.16;5023877;28;20057;-81
2022/02/26 01:12:17;;;;;;;6.25;0.50;;;;;;;7.72;71.28;101793.53;5025907;28;20041;-81
2022/02/26 01:14:44;;;;;;;3.20;0.75;;;;;;;7.74;71.38;101777.50;5010038;28;20049;-82
2022/02/26 01:17:16;;;;;;;4.03;0.75;;;;;;;7.77;71.02;101787.09;5025353;28;20049;-82
2022/02/26 01:19:45;;;;;;;3.55;0.75;;;;;;;7.81;70.91;101788.16;5025984;28;20045;-82
2022/02/26 01:22:12;;;;;;;5.57;0.60;;;;;;;7.86;70.97;101788.88;5007225;28;20045;-81
2022/02/26 01:24:40;;;;;;;4.32;0.70;;;;;;;7.90;70.91;101784.41;5007145;28;20049;-82
2022/02/26 01:27:08;;;;;;;3.80;0.90;;;;;;;7.94;70.87;101781.88;5002122;28;20124;-81
2022/02/26 01:29:35;;;;;;;2.22;0.60;;;;;;;7.95;70.76;101777.97;5008978;28;20048;-82
2022/02/26 01:32:04;;;;;;;3.83;1.15;;;;;;;7.97;70.79;101779.31;5025620;28;20437;-81
2022/02/26 01:34:34;;;;;;;2.28;0.70;;;;;;;7.96;70.88;101760.31;5008711;28;20042;-82
2022/02/26 01:37:03;;;;;;;5.30;0.90;;;;;;;8.02;70.60;101783.09;5042200;28;20041;-82
2022/02/26 01:39:31;;;;;;;2.40;0.52;;;;;;;8.01;70.65;101778.69;5025335;28;20049;-81
2022/02/26 01:41:58;;;;;;;6.20;0.82;;;;;;;8.02;70.54;101777.59;5024191;28;20046;-82
2022/02/26 01:44:25;;;;;;;4.93;0.77;;;;;;;8.02;70.57;101772.06;4994594;28;20508;-81
2022/02/26 01:46:54;;;;;;;1.17;0.50;;;;;;;8.00;70.65;101761.34;5006450;28;20037;-82
2022/02/26 01:49:21;;;;;;;6.15;0.85;;;;;;;7.98;70.47;101755.31;5023027;28;20412;-82
2022/02/26 01:51:49;;;;;;;4.10;0.80;;;;;;;7.95;70.83;101751.22;5006411;28;20045;-82
2022/02/26 01:54:17;;;;;;;7.88;1.00;;;;;;;7.93;70.68;101758.97;5005909;28;20429;-82
2022/02/26 01:56:46;;;;;;;2.55;0.95;;;;;;;7.91;71.11;101749.38;5021993;28;20113;-82
2022/02/26 01:59:13;;;;;;;4.25;0.95;;;;;;;7.88;71.10;101749.97;5020992;28;20047;-82
2022/02/26 02:01:40;;;;;;;7.07;1.05;;;;;;;7.83;71.24;101748.13;5021113;28;20045;-82
2022/02/26 02:04:09;;;;;;;7.10;1.00;;;;;;;7.83;71.28;101742.63;5021305;28;20049;-81
2022/02/26 02:06:37;;;;;;;4.55;1.10;;;;;;;7.78;71.25;101739.94;5021861;28;20067;-82
2022/02/26 02:09:07;;;;;;;3.10;0.68;;;;;;;7.77;71.48;101741.06;5022098;28;20037;-82
2022/02/26 02:11:35;;;;;;;7.28;0.98;;;;;;;7.77;71.35;101743.00;5019335;28;20044;-82
2022/02/26 02:14:03;;;;;;;4.53;0.80;;;;;;;7.77;71.53;101738.31;5021690;28;20049;-81
2022/02/26 02:16:35;;;;;;;6.03;0.68;;;;;;;7.76;71.54;101735.84;5003894;28;20119;-82
2022/02/26 02:19:07;;;;;;;10.63;0.90;;;;;;;7.77;71.13;101737.50;5021587;28;20140;-82
2022/02/26 02:21:35;;;;;;;5.53;2.42;;;;;;;7.80;71.36;101725.88;5018234;28;20042;-82
2022/02/26 02:24:03;;;;;;;4.40;0.60;;;;;;;7.82;71.25;101721.69;5017296;28;20045;-82
2022/02/26 02:26:32;;;;;;;4.63;0.77;;;;;;;7.85;71.30;101720.25;5033898;28;20080;-80
2022/02/26 02:29:00;;;;;;;5.38;1.17;;;;;;;7.85;70.75;101729.34;4999736;28;20519;-81
2022/02/26 02:31:29;;;;;;;6.38;0.88;;;;;;;7.85;70.83;101717.50;5001238;28;20042;-82
2022/02/26 02:33:56;;;;;;;5.75;1.25;;;;;;;7.82;70.87;101707.91;5033299;28;20045;-81
2022/02/26 02:36:23;;;;;;;4.13;0.60;;;;;;;7.80;70.70;101704.63;5017771;28;20049;-82
2022/02/26 02:38:50;;;;;;;5.93;0.77;;;;;;;7.82;70.43;101699.63;5007163;28;20417;-82
2022/02/26 02:41:18;;;;;;;4.35;1.02;;;;;;;7.79;70.89;101689.19;5016938;28;20068;-82
2022/02/26 02:43:45;;;;;;;6.05;0.90;;;;;;;7.77;70.72;101705.25;5014852;28;20045;-80
2022/02/26 02:46:12;;;;;;;5.28;0.60;;;;;;;7.76;70.79;101706.34;5016332;28;20140;-81
2022/02/26 02:48:40;;;;;;;2.65;0.50;;;;;;;7.75;70.80;101704.72;5001791;28;20057;-82
2022/02/26 02:51:08;;;;;;;4.53;0.57;;;;;;;7.76;70.78;101720.13;5011851;28;20053;-81
2022/02/26 02:53:35;;;;;;;6.05;0.90;;;;;;;7.76;70.84;101716.53;5013978;28;20042;-81
2022/02/26 02:56:03;;;;;;;10.68;2.28;;;;;;;7.74;70.80;101711.34;4999907;28;20046;-82
2022/02/26 02:58:35;;;;;;;4.30;0.93;;;;;;;7.73;70.69;101706.94;4998193;28;20132;-82
2022/02/26 03:01:03;;;;;;;2.58;0.93;;;;;;;7.72;70.58;101710.03;4999907;28;20212;-82
2022/02/26 03:03:33;;;;;;;4.28;0.70;;;;;;;7.71;70.83;101697.34;5017458;28;20061;-82
2022/02/26 03:06:00;;;;;;;4.50;1.17;;;;;;;7.70;70.49;101707.59;5000329;28;20057;-80
2022/02/26 03:08:27;;;;;;;5.97;1.27;;;;;;;7.70;70.34;101710.34;5000349;28;20041;-81
2022/02/26 03:10:56;;;;;;;3.20;0.88;;;;;;;7.71;70.17;101705.63;5015255;28;20092;-81
2022/02/26 03:13:26;;;;;;;3.40;0.70;;;;;;;7.69;70.33;101702.34;5015531;28;20056;-81
2022/02/26 03:15:54;;;;;;;3.28;0.70;;;;;;;7.71;70.32;101709.19;4998910;28;20126;-81
2022/02/26 03:18:23;;;;;;;3.22;0.63;;;;;;;7.73;70.16;101697.88;5001235;28;20041;-81
2022/02/26 03:20:52;;;;;;;2.40;0.50;;;;;;;7.74;69.96;101694.81;4999174;28;20059;-81
2022/02/26 03:23:19;;;;;;;4.63;0.88;;;;;;;7.79;69.80;101686.44;5014663;28;20049;-81
2022/02/26 03:25:46;;;;;;;6.13;0.93;;;;;;;7.82;69.59;101685.03;4999548;28;20132;-81
2022/02/26 03:28:14;;;;;;;4.55;0.82;;;;;;;7.84;69.51;101686.34;4998208;28;20900;-80
2022/02/26 03:30:41;;;;;;;1.77;0.85;;;;;;;7.85;68.92;101674.22;5015543;28;20041;-81
2022/02/26 03:33:08;;;;;;;3.22;0.60;;;;;;;7.86;69.03;101675.81;5020361;28;20045;-82
2022/02/26 03:35:36;;;;;;;4.47;0.43;;;;;;;7.88;68.93;101659.00;5018631;28;20048;-81
2022/02/26 03:38:03;;;;;;;5.10;1.33;;;;;;;7.88;68.71;101657.06;5001817;28;20050;-82
2022/02/26 03:40:34;;;;;;;5.22;1.00;;;;;;;7.89;68.78;101652.34;5019485;28;20060;-81
2022/02/26 03:43:02;;;;;;;2.22;0.60;;;;;;;7.89;68.75;101655.09;5018032;28;20047;-81
2022/02/26 03:45:30;;;;;;;7.72;1.00;;;;;;;7.89;68.18;101658.69;5017535;28;20081;-81
2022/02/26 03:48:00;;;;;;;5.03;0.68;;;;;;;7.92;68.13;101657.25;5018396;28;20056;-82
2022/02/26 03:50:27;;;;;;;4.00;0.80;;;;;;;7.92;68.24;101652.56;5019107;28;20680;-81
2022/02/26 03:52:54;;;;;;;3.75;0.88;;;;;;;7.94;68.02;101644.78;5020376;28;20176;-82
2022/02/26 03:55:22;;;;;;;2.25;0.35;;;;;;;7.96;67.87;101648.09;5002284;28;20104;-82
2022/02/26 03:57:49;;;;;;;2.70;1.08;;;;;;;7.99;67.82;101641.94;4996864;28;20041;-82
2022/02/26 04:00:16;;;;;;;3.55;0.50;;;;;;;7.99;68.13;101630.13;5002257;28;20057;-81
2022/02/26 04:02:44;;;;;;;0.68;0.43;;;;;;;8.01;67.76;101607.72;5001136;28;20146;-81
2022/02/26 04:05:15;;;;;;;1.48;0.30;;;;;;;7.97;67.86;101616.63;5003163;28;20041;-81
2022/02/26 04:07:44;;;;;;;5.15;1.40;;;;;;;7.95;67.70;101605.09;5020746;28;20158;-81
2022/02/26 04:10:11;;;;;;;4.25;1.15;;;;;;;7.97;67.84;101613.84;5019716;28;20072;-81
2022/02/26 04:12:38;;;;;;;3.58;0.70;;;;;;;7.99;67.58;101616.31;5018182;28;20057;-82
2022/02/26 04:15:06;;;;;;;3.92;0.55;;;;;;;8.00;67.67;101609.66;5000514;28;20398;-82
2022/02/26 04:17:36;;;;;;;4.60;0.63;;;;;;;8.02;67.79;101609.38;5019683;28;20056;-82
2022/02/26 04:20:04;;;;;;;0.73;0.25;;;;;;;7.99;67.83;101606.09;5019861;28;20041;-82
2022/02/26 04:22:31;;;;;;;2.47;0.70;;;;;;;8.03;68.01;101591.69;5017444;28;20046;-82
2022/02/26 04:24:58;;;;;;;2.67;0.40;;;;;;;8.03;67.87;101619.25;5002894;28;20045;-82
2022/02/26 04:27:25;;;;;;;5.40;0.60;;;;;;;8.04;67.49;101604.38;5001281;28;20047;-82
2022/02/26 04:29:52;;;;;;;6.88;0.60;;;;;;;8.07;67.95;101603.75;5001345;28;20520;-82
2022/02/26 04:32:40;;;;;;;4.63;1.20;;;;;;;8.08;67.85;101588.81;5001808;28;20086;-81
2022/02/26 04:35:09;;;;;;;5.68;0.60;;;;;;;8.09;68.18;101590.47;5017275;28;20092;-79
2022/02/26 04:37:36;;;;;;;8.13;1.00;;;;;;;8.08;68.05;101584.13;5016779;28;20435;-82
2022/02/26 04:40:04;;;;;;;4.97;1.90;;;;;;;8.08;68.31;101580.56;5018380;28;20128;-82
2022/02/26 04:42:33;;;;;;;3.33;0.70;;;;;;;8.08;67.85;101583.31;5017769;28;20065;-82
2022/02/26 04:45:00;;;;;;;3.15;0.70;;;;;;;8.08;68.16;101567.59;5017973;28;20053;-83
2022/02/26 04:47:27;;;;;;;11.90;1.30;;;;;;;8.11;68.08;101568.91;5001078;28;20436;-81
2022/02/26 04:49:54;;;;;;;3.17;1.00;;;;;;;8.10;68.60;101559.03;5017742;28;20064;-82
2022/02/26 04:52:21;;;;;;;2.22;0.85;;;;;;;8.07;68.85;101560.44;4999556;28;20072;-82
2022/02/26 04:54:48;;;;;;;7.45;0.88;;;;;;;8.06;69.10;101563.50;5018510;28;20607;-82
2022/02/26 04:57:15;;;;;;;6.78;0.75;;;;;;;8.04;69.23;101560.25;5018409;28;21466;-81
2022/02/26 04:59:42;;;;;;;3.08;0.82;;;;;;;8.04;69.28;101549.22;5001574;28;20081;-81
2022/02/26 05:02:10;;;;;;;1.15;0.70;;;;;;;8.03;69.34;101559.41;5018048;28;20045;-82
2022/02/26 05:04:37;;;;;;;6.68;1.25;;;;;;;8.01;69.30;101538.78;5016840;28;20076;-81
2022/02/26 05:07:05;;;;;;;5.75;0.85;;;;;;;8.04;69.19;101543.69;4999696;28;20037;-82
2022/02/26 05:09:32;;;;;;;1.60;0.80;;;;;;;8.05;69.37;101550.84;5032712;28;20132;-83
2022/02/26 05:12:01;;;;;;;4.75;1.23;;;;;;;8.07;69.25;101545.84;5017836;28;20559;-81
2022/02/26 05:14:28;;;;;;;7.75;1.13;;;;;;;8.08;69.47;101547.47;5017067;28;20045;-81
2022/02/26 05:16:55;;;;;;;3.38;1.10;;;;;;;8.09;69.74;101551.84;5016633;28;20636;-82
2022/02/26 05:19:22;;;;;;;3.58;1.05;;;;;;;8.06;70.13;101546.97;5017747;28;20676;-81
2022/02/26 05:21:49;;;;;;;8.45;1.20;;;;;;;8.03;70.50;101555.84;5035051;28;20045;-80
2022/02/26 05:24:17;;;;;;;4.35;1.20;;;;;;;7.99;71.00;101559.22;5023031;28;20604;-82
2022/02/26 05:26:44;;;;;;;7.45;1.05;;;;;;;7.97;71.26;101549.63;5021273;28;20128;-82
2022/02/26 05:29:11;;;;;;;6.35;1.58;;;;;;;7.96;71.38;101546.06;5037504;28;20045;-81
2022/02/26 05:31:38;;;;;;;7.07;2.42;;;;;;;7.94;71.99;101526.22;5018939;28;20045;-81
2022/02/26 05:34:07;;;;;;;14.05;2.53;;;;;;;7.95;72.00;101530.63;5005215;28;20049;-82
2022/02/26 05:36:36;;;;;;;5.30;1.10;;;;;;;7.96;72.02;101521.25;5020999;28;20042;-81
2022/02/26 05:39:04;;;;;;;5.53;1.13;;;;;;;7.97;72.16;101536.66;5021106;28;20211;-82
2022/02/26 05:41:31;;;;;;;9.60;2.20;;;;;;;7.96;72.26;101523.19;5022562;28;20053;-80
2022/02/26 05:44:00;;;;;;;8.80;1.80;;;;;;;7.95;72.35;101524.31;5023330;28;20042;-82
2022/02/26 05:46:27;;;;;;;3.20;0.93;;;;;;;7.96;72.80;101514.91;5019872;28;20095;-83
2022/02/26 05:48:54;;;;;;;3.10;0.80;;;;;;;7.94;72.62;101506.94;5016961;28;20106;-83
2022/02/26 05:51:21;;;;;;;2.33;0.57;;;;;;;7.96;72.66;101515.75;5022056;28;20047;-81
2022/02/26 05:53:49;;;;;;;4.53;0.77;;;;;;;8.03;72.02;101512.53;5021019;28;20655;-83
2022/02/26 05:56:16;;;;;;;6.03;0.85;;;;;;;8.09;71.77;101502.22;5004584;28;20071;-81
2022/02/26 05:58:43;;;;;;;7.30;0.60;;;;;;;8.12;72.10;101512.63;5022086;28;20049;-82
2022/02/26 06:01:10;;;;;;;4.70;1.42;;;;;;;8.12;71.74;101490.56;5018571;28;20151;-81
2022/02/26 06:03:38;;;;;;;4.35;0.73;;;;;;;8.14;71.62;101499.34;4999221;28;20801;-82
2022/02/26 06:06:05;;;;;;;2.65;0.60;;;;;;;8.16;71.64;101503.41;5016182;28;20055;-82
2022/02/26 06:08:32;;;;;;;7.22;0.98;;;;;;;8.18;71.92;101497.63;5016250;28;20419;-82
2022/02/26 06:10:59;;;;;;;3.15;1.73;;;;;;;8.18;71.65;101508.66;5016858;28;20046;-83
2022/02/26 06:13:26;;;;;;;6.00;1.35;;;;;;;8.18;71.72;101497.63;5016551;28;20041;-82
2022/02/26 06:15:53;;;;;;;6.30;2.20;;;;;;;8.19;72.01;101497.28;4999047;28;20047;-81
2022/02/26 06:18:21;;;;;;;6.40;0.88;;;;;;;8.18;71.77;101497.63;5033156;28;20432;-82
2022/02/26 06:20:48;;;;;;;5.70;1.08;;;;;;;8.19;71.95;101507.50;5016958;28;20057;-82
2022/02/26 06:23:16;;;;;;;2.85;0.60;;;;;;;8.17;72.18;101494.03;5019452;28;20076;-82
2022/02/26 06:25:43;;;;;;;8.02;0.90;;;;;;;8.19;72.04;101501.97;5020747;28;20050;-80
2022/02/26 06:28:13;;;;;;;5.10;1.60;;;;;;;8.18;72.10;101494.84;5019715;28;20049;-82
2022/02/26 06:30:40;;;;;;;3.50;0.70;;;;;;;8.17;72.46;101509.75;5020047;28;20049;-82
2022/02/26 06:33:12;;;;;;;5.68;1.13;;;;;;;8.17;72.38;101512.50;5021077;28;20068;-82
2022/02/26 06:35:41;;;;;;;5.38;1.70;;;;;;;8.17;72.55;101505.06;5020092;28;20049;-82
2022/02/26 06:38:08;;;;;;;4.72;0.75;;;;;;;8.15;72.97;101510.09;5019006;28;20041;-82
2022/02/26 06:40:35;;;;;;;3.33;2.40;;;;;;;8.17;72.57;101507.00;5035615;28;20049;-82
2022/02/26 06:43:03;;;;;;;4.38;0.93;;;;;;;8.15;72.72;101503.75;5021521;28;20374;-82
2022/02/26 06:45:31;;;;;;;4.72;0.88;;;;;;;8.16;72.71;101495.16;4989215;28;20136;-81
2022/02/26 06:47:58;;;;;;;6.30;1.20;;;;;;;8.19;72.76;101485.44;5003696;28;20114;-81
2022/02/26 06:50:25;;;;;;;6.28;1.65;;;;;;;8.19;72.61;101490.94;5019876;28;20090;-82
2022/02/26 06:52:52;;;;;;;4.18;1.17;;;;;;;8.18;72.69;101478.31;5019981;28;20046;-82
2022/02/26 06:55:19;;;;;;;7.20;1.75;;;;;;;8.18;72.71;101483.81;5037563;28;20571;-81
2022/02/26 06:57:49;;;;;;;3.65;1.02;;;;;;;8.18;72.25;101479.09;5021234;28;20044;-81
2022/02/26 07:00:17;;;;;;;8.85;1.60;;;;;;;8.20;72.19;101489.84;5020439;28;20516;-82
2022/02/26 07:02:44;;;;;;;7.85;1.75;;;;;;;8.21;72.06;101478.47;5021523;28;20071;-82
2022/02/26 07:05:12;;;;;;;5.75;1.20;;;;;;;8.21;72.04;101472.97;5037164;28;20049;-82
2022/02/26 07:07:41;;;;;;;3.33;0.95;;;;;;;8.22;71.98;101479.28;5019844;28;20041;-81
2022/02/26 07:10:08;;;;;;;6.78;1.75;;;;;;;8.23;71.76;101469.91;5003535;28;20050;-82
2022/02/26 07:12:37;;;;;;;3.33;0.60;;;;;;;8.24;71.73;101482.56;5004593;28;20118;-82
2022/02/26 07:15:04;;;;;;;5.35;1.02;;;;;;;8.25;71.70;101475.91;5036206;28;20053;-82
2022/02/26 07:17:32;;;;;;;4.97;1.48;;;;;;;8.25;71.74;101478.69;5020165;28;20049;-81
2022/02/26 07:19:59;;;;;;;6.15;0.77;;;;;;;8.25;71.75;101481.44;5036662;28;20521;-81
2022/02/26 07:22:26;;;;;;;5.53;1.00;;;;;;;8.25;71.97;101467.66;5019966;28;20051;-81
2022/02/26 07:24:53;;;;;;;10.70;2.25;;;;;;;8.23;71.89;101469.91;5019442;28;20045;-82
2022/02/26 07:27:20;;;;;;;5.13;1.63;;;;;;;8.25;71.83;101473.97;5020519;28;20077;-82
2022/02/26 07:29:47;;;;;;;6.35;1.20;;;;;;;8.25;71.84;101467.66;5014588;28;20037;-82
2022/02/26 07:32:14;;;;;;;3.47;1.35;;;;;;;8.27;71.82;101465.41;5002629;28;20060;-81
2022/02/26 07:34:42;;;;;;;4.35;1.15;;;;;;;8.26;72.03;101477.56;5017744;28;20052;-82
2022/02/26 07:37:10;;;;;;;5.28;1.05;;;;;;;8.26;72.09;101475.59;5018973;28;20049;-80
2022/02/26 07:39:37;;;;;;;3.30;1.17;;;;;;;8.26;72.01;101469.28;5001201;28;20075;-82
2022/02/26 07:42:04;;;;;;;4.45;1.38;;;;;;;8.26;72.03;101469.28;5020203;28;20049;-82
2022/02/26 07:44:31;;;;;;;4.35;0.88;;;;;;;8.26;71.85;101474.81;5016015;28;20508;-81
2022/02/26 07:46:58;;;;;;;2.88;0.95;;;;;;;8.27;71.67;101465.41;5020761;28;20041;-82
2022/02/26 07:49:26;;;;;;;11.15;1.30;;;;;;;8.29;71.63;101463.16;5018027;28;20088;-82
2022/02/26 07:51:54;;;;;;;7.38;1.70;;;;;;;8.29;71.80;101465.91;5018803;28;20123;-81
2022/02/26 07:54:21;;;;;;;4.30;1.33;;;;;;;8.29;71.82;101471.44;5018530;28;20060;-82
2022/02/26 07:56:48;;;;;;;4.18;1.42;;;;;;;8.27;71.49;101457.97;5034399;28;20124;-82
2022/02/26 07:59:16;;;;;;;7.70;1.55;;;;;;;8.28;71.47;101461.53;5015204;28;20507;-82
2022/02/26 08:01:43;;;;;;;5.00;0.73;;;;;;;8.29;71.29;101457.63;5019743;28;20053;-82
2022/02/26 08:04:10;;;;;;;3.35;1.05;;;;;;;8.29;71.32;101457.63;5016428;28;20054;-82
2022/02/26 08:06:37;;;;;;;6.78;1.00;;;;;;;8.30;71.27;101454.56;5017281;28;20124;-82
2022/02/26 08:09:04;;;;;;;6.47;0.98;;;;;;;8.29;71.17;101466.72;5019218;28;20056;-82
2022/02/26 08:11:32;;;;;;;5.10;0.73;;;;;;;8.29;70.96;101458.44;4998175;28;20048;-82
2022/02/26 08:13:59;;;;;;;4.95;1.58;;;;;;;8.31;70.95;101463.69;5001876;28;20056;-83
2022/02/26 08:16:28;;;;;;;9.50;2.10;;;;;;;8.31;70.91;101460.91;5017272;28;20041;-82
2022/02/26 08:18:55;;;;;;;5.80;1.35;;;;;;;8.34;70.82;101471.34;5019921;28;20052;-81
2022/02/26 08:21:22;;;;;;;4.93;0.95;;;;;;;8.33;70.69;101464.19;5018247;28;20133;-80
2022/02/26 08:23:50;;;;;;;5.88;1.13;;;;;;;8.34;70.83;101450.06;5017862;28;20056;-80
2022/02/26 08:26:18;;;;;;;6.38;0.90;;;;;;;8.35;70.73;101448.94;5019857;28;20049;-82
2022/02/26 08:28:46;;;;;;;5.20;2.65;;;;;;;8.37;70.84;101437.56;5017335;28;20049;-82
2022/02/26 08:31:16;;;;;;;2.25;0.77;;;;;;;8.36;70.79;101441.47;5017746;28;20060;-82
2022/02/26 08:33:45;;;;;;;7.03;1.13;;;;;;;8.39;70.53;101435.34;5020564;28;20049;-81
2022/02/26 08:36:12;;;;;;;7.80;0.77;;;;;;;8.39;70.78;101438.09;5018532;28;20081;-81
2022/02/26 08:38:39;;;;;;;10.15;4.50;;;;;;;8.40;70.95;101428.66;4999836;28;20517;-81
2022/02/26 08:41:06;;;;;;;11.65;2.22;;;;;;;8.42;70.51;101434.69;5036642;28;20059;-81
2022/02/26 08:43:33;;;;;;;17.48;3.70;;;;;;;8.42;70.98;101424.47;5019337;28;20063;-80
2022/02/26 08:46:02;;;;;;;8.93;2.38;;;;;;;8.43;70.59;101437.16;5018779;28;20496;-81
2022/02/26 08:48:29;;;;;;;7.43;0.90;;;;;;;8.42;70.43;101440.19;5020010;28;20042;-81
2022/02/26 08:50:56;;;;;;;2.70;0.98;;;;;;;8.44;70.83;101437.97;5002912;28;20133;-81
2022/02/26 08:53:23;;;;;;;3.40;1.00;;;;;;;8.45;70.61;101442.34;5018682;28;20045;-81
2022/02/26 08:55:50;;;;;;;4.63;1.70;;;;;;;8.46;70.74;101435.69;5020558;28;20045;-81
2022/02/26 08:58:17;;;;;;;8.38;1.30;;;;;;;8.47;70.86;101442.88;5007494;28;20064;-81
2022/02/26 09:00:49;;;;;;;2.85;1.02;;;;;;;8.47;71.02;101442.88;5007074;28;20494;-81
2022/02/26 09:03:17;;;;;;;4.85;1.00;;;;;;;8.46;71.51;101435.69;5022667;28;20067;-81
2022/02/26 09:05:45;;;;;;;2.45;0.70;;;;;;;8.45;71.57;101428.53;5022363;28;20052;-81
2022/02/26 09:08:14;;;;;;;5.32;1.15;;;;;;;8.47;71.67;101426.31;5006861;28;20053;-80
2022/02/26 09:10:41;;;;;;;7.47;1.08;;;;;;;8.49;71.53;101429.56;5023139;28;20386;-81
2022/02/26 09:13:09;;;;;;;3.88;1.08;;;;;;;8.48;71.58;101425.16;5004783;28;20049;-81
2022/02/26 09:15:36;;;;;;;4.90;0.82;;;;;;;8.53;71.57;101430.53;5003439;28;20045;-80
2022/02/26 09:18:04;;;;;;;2.13;0.90;;;;;;;8.55;71.61;101423.59;5003100;28;20048;-81
2022/02/26 09:20:31;;;;;;;4.68;0.95;;;;;;;8.57;71.74;101415.81;5038115;28;20041;-90
2022/02/26 09:22:58;;;;;;;5.43;0.93;;;;;;;8.60;71.58;101403.34;5019131;28;20049;-81
2022/02/26 09:25:25;;;;;;;3.38;0.75;;;;;;;8.62;71.54;101412.09;5006214;28;20409;-81
2022/02/26 09:27:52;;;;;;;3.85;0.93;;;;;;;8.66;71.37;101402.06;5005527;28;20140;-81
2022/02/26 09:30:19;;;;;;;3.53;0.82;;;;;;;8.73;71.58;101396.09;5019035;28;20049;-80
2022/02/26 09:32:47;;;;;;;3.38;1.10;;;;;;;8.78;71.45;101402.28;5017187;28;20103;-81
2022/02/26 09:35:15;;;;;;;8.75;1.02;;;;;;;8.83;71.37;101384.78;5018755;28;20081;-81
2022/02/26 09:37:58;;;;;;;6.60;1.77;;;;;;;8.85;70.59;101379.72;5021410;28;20493;-81
2022/02/26 09:40:28;;;;;;;4.00;1.50;;;;;;;8.89;70.27;101384.31;5020265;28;20470;-81
2022/02/26 09:43:02;;;;;;;6.85;1.20;;;;;;;8.94;69.83;101386.94;5036181;28;20053;-81
2022/02/26 09:45:38;;;;;;;7.05;0.93;;;;;;;8.99;69.39;101381.28;5021514;28;20145;-81
2022/02/26 09:48:17;;;;;;;3.85;1.30;;;;;;;9.05;69.48;101377.22;5026565;28;20041;-81
2022/02/26 09:50:54;;;;;;;5.10;1.20;;;;;;;9.06;69.39;101365.03;5021173;28;20049;-82
2022/02/26 09:53:25;;;;;;;5.75;0.95;;;;;;;9.08;69.11;101384.88;5022109;28;20047;-81
2022/02/26 09:56:01;;;;;;;6.15;1.42;;;;;;;9.05;68.53;101365.38;5024459;28;20475;-80
2022/02/26 09:58:39;;;;;;;3.65;0.77;;;;;;;9.06;68.96;101362.28;4988847;28;20041;-80
2022/02/26 10:01:22;;;;;;;6.18;1.05;;;;;;;9.07;68.86;101363.09;5020487;28;20049;-80
2022/02/26 10:04:10;;;;;;;6.03;1.23;;;;;;;9.06;68.79;101358.69;5028519;28;20053;-82
2022/02/26 10:06:49;;;;;;;5.50;1.70;;;;;;;9.05;69.18;101352.34;5004310;28;20062;-82
2022/02/26 10:09:26;;;;;;;6.50;1.50;;;;;;;9.09;69.31;101367.16;5016852;28;20029;-82
2022/02/26 10:11:59;;;;;;;8.13;2.95;;;;;;;9.12;69.49;101358.25;4973609;28;20572;-82
2022/02/26 10:14:36;;;;;;;9.70;2.05;;;;;;;9.17;69.53;101358.09;4986926;28;20068;-81
2022/02/26 10:17:08;;;;;;;2.40;1.30;;;;;;;9.19;69.77;101361.34;5002379;28;20064;-82
2022/02/26 10:19:42;;;;;;;9.43;2.42;;;;;;;9.18;69.70;101356.16;5021354;28;20034;-82
2022/02/26 10:22:16;;;;;;;5.13;1.45;;;;;;;9.17;69.75;101355.34;5018699;28;20046;-82
2022/02/26 10:24:48;;;;;;;9.32;1.50;;;;;;;9.18;69.61;101347.88;4992397;28;20041;-81
2022/02/26 10:27:27;;;;;;;11.80;3.50;;;;;;;9.19;69.46;101355.81;5003481;28;20045;-81
2022/02/26 10:29:59;;;;;;;7.28;1.58;;;;;;;9.26;69.56;101351.78;5026848;28;20049;-80
2022/02/26 10:37:10;;;;;;;3.20;1.30;;;;;;;9.37;68.83;101350.34;4827467;29;20867;-83
2022/02/26 10:39:52;;;;;;;4.78;1.50;;;;;;;9.40;68.68;101338.66;4834925;29;20054;-84
2022/02/26 10:42:23;;;;;;;9.05;1.17;;;;;;;9.45;68.88;101331.00;4837555;29;20054;-84
2022/02/26 10:45:13;;;;;;;6.55;1.30;;;;;;;9.53;67.16;101370.84;4843518;29;20099;-81
2022/02/26 11:19:03;;;;;;;8.15;1.00;;;;;;;9.67;67.83;101288.56;4785708;29;20062;-81
2022/02/26 11:22:15;;;;;;;4.38;0.80;;;;;;;9.68;68.04;101295.72;4823313;29;20054;-80
2022/02/26 11:24:44;;;;;;;7.68;1.23;;;;;;;9.67;68.27;101299.63;4840311;29;20508;-81
2022/02/26 11:27:16;;;;;;;3.90;0.60;;;;;;;9.69;67.59;101309.22;4837015;29;20049;-82
2022/02/26 11:30:09;;;;;;;7.18;3.35;;;;;;;9.70;67.13;101293.44;4834690;29;20046;-83
2022/02/26 11:32:40;;;;;;;7.45;1.30;;;;;;;9.72;67.24;101285.63;4826464;29;20046;-81
2022/02/26 11:35:26;;;;;;;8.27;2.03;;;;;;;9.75;66.65;101290.50;4841821;29;20046;-92
2022/02/26 11:38:03;;;;;;;3.63;0.98;;;;;;;9.80;66.91;101298.66;4826041;29;20042;-81
2022/02/26 11:40:31;;;;;;;8.77;1.23;;;;;;;9.80;67.00;101298.66;4825147;29;20081;-79
2022/02/26 11:43:02;;;;;;;5.63;1.52;;;;;;;9.74;65.73;101286.16;4840357;29;20049;-81
2022/02/26 11:45:31;;;;;;;6.70;1.08;;;;;;;9.74;66.51;101288.91;4840862;29;20056;-80
2022/02/26 11:48:08;;;;;;;6.15;1.10;;;;;;;9.81;66.57;101289.22;4826137;29;20049;-80
2022/02/26 11:50:46;;;;;;;4.00;1.05;;;;;;;9.86;66.30;101277.16;4809994;29;20053;-83
2022/02/26 12:02:29;;;;;;;7.57;1.30;;;;;;;9.91;65.57;101252.91;4820791;29;20058;-82
2022/02/26 12:19:20;;;;;;;7.22;1.20;;;;;;;10.34;65.44;101234.28;4147419;27;20061;-81
2022/02/26 12:22:51;;;;;;;6.63;1.42;;;;;;;10.38;63.61;101215.03;4853216;29;20133;-81
2022/02/26 12:26:18;;;;;;;;;;;;;;;;;;;;;
2022/02/26 12:37:54;;;;;;;;;;;;;;;;;;;;;
2022/02/26 12:41:19;;;;;;;13.32;2.25;;;;;;;10.56;64.32;101182.56;4789424;29;20119;-82
2022/02/26 12:44:35;;;;;;;;;;;;;;;;;;;;;
2022/02/26 12:47:43;;;;;;;8.93;1.27;;;;;;;10.55;64.67;101170.66;4802851;29;20078;-81
2022/02/26 12:50:19;;;;;;;7.82;1.88;;;;;;;10.62;65.17;101175.66;4856766;29;20613;-82
2022/02/26 12:52:49;;;;;;;10.02;2.60;;;;;;;10.80;64.97;101178.00;4843154;29;20065;-81
2022/02/26 12:55:17;;;;;;;18.00;2.75;;;;;;;11.05;64.89;101172.59;4847395;29;20128;-80
2022/02/26 12:57:47;;;;;;;11.13;2.65;;;;;;;11.15;64.68;101175.78;4834737;29;20049;-81